sensor_id;sensor_type;location;lat;lon;timestamp;P1;durP1;ratioP1;P2;durP2;ratioP2
74904;SDS011;63465;50.862;6.220;2024-02-23T00:01:30;56.73;;;30.20;;
74904;SDS011;63465;50.862;6.220;2024-02-23T00:03:55;55.73;;;28.60;;
74904;SDS011;63465;50.862;6.220;2024-02-23T00:06:20;58.30;;;31.07;;
74904;SDS011;63465;50.862;6.220;2024-02-23T00:08:47;54.40;;;29.13;;
74904;SDS011;63465;50.862;6.220;2024-02-23T00:11:13;51.53;;;28.93;;
74904;SDS011;63465;50.862;6.220;2024-02-23T00:13:38;53.07;;;28.77;;
74904;SDS011;63465;50.862;6.220;2024-02-23T00:16:03;52.63;;;28.13;;
74904;SDS011;63465;50.862;6.220;2024-02-23T00:18:29;55.03;;;28.40;;
74904;SDS011;63465;50.862;6.220;2024-02-23T00:20:54;51.83;;;28.40;;
74904;SDS011;63465;50.862;6.220;2024-02-23T00:23:21;45.90;;;26.27;;
74904;SDS011;63465;50.862;6.220;2024-02-23T00:25:46;46.37;;;26.57;;
74904;SDS011;63465;50.862;6.220;2024-02-23T00:28:11;49.90;;;26.53;;
74904;SDS011;63465;50.862;6.220;2024-02-23T00:30:37;49.80;;;26.40;;
74904;SDS011;63465;50.862;6.220;2024-02-23T00:33:02;48.83;;;26.47;;
74904;SDS011;63465;50.862;6.220;2024-02-23T00:35:27;54.63;;;28.10;;
74904;SDS011;63465;50.862;6.220;2024-02-23T00:37:53;51.20;;;26.17;;
74904;SDS011;63465;50.862;6.220;2024-02-23T00:40:18;44.30;;;24.87;;
74904;SDS011;63465;50.862;6.220;2024-02-23T00:42:43;49.43;;;25.70;;
74904;SDS011;63465;50.862;6.220;2024-02-23T00:45:09;44.50;;;23.77;;
74904;SDS011;63465;50.862;6.220;2024-02-23T00:47:34;44.83;;;24.77;;
74904;SDS011;63465;50.862;6.220;2024-02-23T00:50:00;46.13;;;24.30;;
74904;SDS011;63465;50.862;6.220;2024-02-23T00:52:26;47.07;;;23.93;;
74904;SDS011;63465;50.862;6.220;2024-02-23T00:54:52;43.43;;;23.70;;
74904;SDS011;63465;50.862;6.220;2024-02-23T00:57:17;42.80;;;23.00;;
74904;SDS011;63465;50.862;6.220;2024-02-23T00:59:46;41.73;;;23.73;;
74904;SDS011;63465;50.862;6.220;2024-02-23T01:02:12;44.47;;;23.17;;
74904;SDS011;63465;50.862;6.220;2024-02-23T01:04:37;43.50;;;22.70;;
74904;SDS011;63465;50.862;6.220;2024-02-23T01:07:02;44.60;;;23.80;;
74904;SDS011;63465;50.862;6.220;2024-02-23T01:09:28;41.70;;;22.70;;
74904;SDS011;63465;50.862;6.220;2024-02-23T01:11:53;38.60;;;21.43;;
74904;SDS011;63465;50.862;6.220;2024-02-23T01:14:18;41.77;;;21.50;;
74904;SDS011;63465;50.862;6.220;2024-02-23T01:16:44;34.47;;;20.50;;
74904;SDS011;63465;50.862;6.220;2024-02-23T01:19:09;37.40;;;20.10;;
74904;SDS011;63465;50.862;6.220;2024-02-23T01:21:34;39.30;;;21.30;;
74904;SDS011;63465;50.862;6.220;2024-02-23T01:23:59;38.80;;;20.80;;
74904;SDS011;63465;50.862;6.220;2024-02-23T01:26:25;37.70;;;19.70;;
74904;SDS011;63465;50.862;6.220;2024-02-23T01:28:51;37.17;;;18.83;;
74904;SDS011;63465;50.862;6.220;2024-02-23T01:31:16;36.13;;;20.43;;
74904;SDS011;63465;50.862;6.220;2024-02-23T01:33:41;40.63;;;20.87;;
74904;SDS011;63465;50.862;6.220;2024-02-23T01:36:07;41.30;;;22.80;;
74904;SDS011;63465;50.862;6.220;2024-02-23T01:38:32;46.10;;;24.83;;
74904;SDS011;63465;50.862;6.220;2024-02-23T01:40:58;45.70;;;23.00;;
74904;SDS011;63465;50.862;6.220;2024-02-23T01:43:24;161.73;;;29.00;;
74904;SDS011;63465;50.862;6.220;2024-02-23T01:45:50;52.20;;;27.23;;
74904;SDS011;63465;50.862;6.220;2024-02-23T01:48:16;67.33;;;30.70;;
74904;SDS011;63465;50.862;6.220;2024-02-23T01:50:42;55.20;;;28.20;;
74904;SDS011;63465;50.862;6.220;2024-02-23T01:53:08;54.40;;;26.30;;
74904;SDS011;63465;50.862;6.220;2024-02-23T01:55:35;61.23;;;31.20;;
74904;SDS011;63465;50.862;6.220;2024-02-23T01:58:44;60.77;;;30.87;;
74904;SDS011;63465;50.862;6.220;2024-02-23T02:01:11;63.90;;;33.00;;
74904;SDS011;63465;50.862;6.220;2024-02-23T02:03:37;60.90;;;31.07;;
74904;SDS011;63465;50.862;6.220;2024-02-23T02:06:04;63.90;;;32.55;;
74904;SDS011;63465;50.862;6.220;2024-02-23T02:12:34;67.97;;;33.37;;
74904;SDS011;63465;50.862;6.220;2024-02-23T02:15:00;63.47;;;32.00;;
74904;SDS011;63465;50.862;6.220;2024-02-23T02:17:27;60.67;;;31.47;;
74904;SDS011;63465;50.862;6.220;2024-02-23T02:19:52;66.53;;;32.63;;
74904;SDS011;63465;50.862;6.220;2024-02-23T02:22:18;60.03;;;30.10;;
74904;SDS011;63465;50.862;6.220;2024-02-23T02:24:43;66.10;;;32.13;;
74904;SDS011;63465;50.862;6.220;2024-02-23T02:27:11;64.67;;;32.33;;
74904;SDS011;63465;50.862;6.220;2024-02-23T02:29:36;58.13;;;29.80;;
74904;SDS011;63465;50.862;6.220;2024-02-23T02:32:02;62.97;;;31.80;;
74904;SDS011;63465;50.862;6.220;2024-02-23T02:34:27;61.90;;;29.80;;
74904;SDS011;63465;50.862;6.220;2024-02-23T02:36:53;61.80;;;31.37;;
74904;SDS011;63465;50.862;6.220;2024-02-23T02:39:19;67.43;;;32.63;;
74904;SDS011;63465;50.862;6.220;2024-02-23T02:41:44;63.97;;;32.30;;
74904;SDS011;63465;50.862;6.220;2024-02-23T02:44:09;70.30;;;34.80;;
74904;SDS011;63465;50.862;6.220;2024-02-23T02:46:35;77.20;;;38.13;;
74904;SDS011;63465;50.862;6.220;2024-02-23T02:49:00;81.13;;;38.77;;
74904;SDS011;63465;50.862;6.220;2024-02-23T02:51:26;78.50;;;38.27;;
74904;SDS011;63465;50.862;6.220;2024-02-23T02:53:51;80.67;;;41.27;;
74904;SDS011;63465;50.862;6.220;2024-02-23T02:56:16;95.23;;;42.43;;
74904;SDS011;63465;50.862;6.220;2024-02-23T02:58:42;85.77;;;41.80;;
74904;SDS011;63465;50.862;6.220;2024-02-23T03:01:07;93.97;;;43.57;;
74904;SDS011;63465;50.862;6.220;2024-02-23T03:03:33;94.90;;;42.57;;
74904;SDS011;63465;50.862;6.220;2024-02-23T03:05:58;84.77;;;42.67;;
74904;SDS011;63465;50.862;6.220;2024-02-23T03:08:24;90.00;;;43.10;;
74904;SDS011;63465;50.862;6.220;2024-02-23T03:10:49;92.97;;;42.23;;
74904;SDS011;63465;50.862;6.220;2024-02-23T03:13:14;86.00;;;42.60;;
74904;SDS011;63465;50.862;6.220;2024-02-23T03:15:39;92.07;;;41.83;;
74904;SDS011;63465;50.862;6.220;2024-02-23T03:18:05;100.70;;;44.33;;
74904;SDS011;63465;50.862;6.220;2024-02-23T03:20:30;83.87;;;42.77;;
74904;SDS011;63465;50.862;6.220;2024-02-23T03:22:55;94.10;;;44.47;;
74904;SDS011;63465;50.862;6.220;2024-02-23T03:25:21;91.00;;;43.57;;
74904;SDS011;63465;50.862;6.220;2024-02-23T03:27:46;91.83;;;42.20;;
74904;SDS011;63465;50.862;6.220;2024-02-23T03:30:11;93.27;;;42.70;;
74904;SDS011;63465;50.862;6.220;2024-02-23T03:32:36;94.60;;;42.37;;
74904;SDS011;63465;50.862;6.220;2024-02-23T03:35:03;93.23;;;44.93;;
74904;SDS011;63465;50.862;6.220;2024-02-23T03:37:29;98.50;;;44.93;;
74904;SDS011;63465;50.862;6.220;2024-02-23T03:39:54;98.60;;;42.77;;
74904;SDS011;63465;50.862;6.220;2024-02-23T03:42:19;92.80;;;42.40;;
74904;SDS011;63465;50.862;6.220;2024-02-23T03:44:45;98.73;;;44.33;;
74904;SDS011;63465;50.862;6.220;2024-02-23T03:47:10;89.17;;;41.83;;
74904;SDS011;63465;50.862;6.220;2024-02-23T03:49:35;85.33;;;39.90;;
74904;SDS011;63465;50.862;6.220;2024-02-23T03:52:00;81.50;;;40.67;;
74904;SDS011;63465;50.862;6.220;2024-02-23T03:54:26;86.60;;;41.60;;
74904;SDS011;63465;50.862;6.220;2024-02-23T03:56:52;83.50;;;40.33;;
74904;SDS011;63465;50.862;6.220;2024-02-23T03:59:17;85.53;;;41.87;;
74904;SDS011;63465;50.862;6.220;2024-02-23T04:01:42;84.67;;;39.53;;
74904;SDS011;63465;50.862;6.220;2024-02-23T04:04:09;81.20;;;39.00;;
74904;SDS011;63465;50.862;6.220;2024-02-23T04:06:34;81.07;;;38.40;;
74904;SDS011;63465;50.862;6.220;2024-02-23T04:08:59;79.43;;;38.47;;
74904;SDS011;63465;50.862;6.220;2024-02-23T04:11:25;82.70;;;39.37;;
74904;SDS011;63465;50.862;6.220;2024-02-23T04:13:50;78.90;;;37.30;;
74904;SDS011;63465;50.862;6.220;2024-02-23T04:16:15;78.40;;;38.27;;
74904;SDS011;63465;50.862;6.220;2024-02-23T04:18:41;76.63;;;37.57;;
74904;SDS011;63465;50.862;6.220;2024-02-23T04:21:06;80.47;;;37.47;;
74904;SDS011;63465;50.862;6.220;2024-02-23T04:23:31;79.27;;;38.43;;
74904;SDS011;63465;50.862;6.220;2024-02-23T04:25:56;79.77;;;36.67;;
74904;SDS011;63465;50.862;6.220;2024-02-23T04:28:22;70.00;;;35.37;;
74904;SDS011;63465;50.862;6.220;2024-02-23T04:30:48;74.40;;;35.10;;
74904;SDS011;63465;50.862;6.220;2024-02-23T04:33:13;68.03;;;34.37;;
74904;SDS011;63465;50.862;6.220;2024-02-23T04:35:38;70.60;;;35.60;;
74904;SDS011;63465;50.862;6.220;2024-02-23T04:38:04;73.70;;;36.33;;
74904;SDS011;63465;50.862;6.220;2024-02-23T04:40:29;66.73;;;33.37;;
74904;SDS011;63465;50.862;6.220;2024-02-23T04:42:54;68.77;;;34.30;;
74904;SDS011;63465;50.862;6.220;2024-02-23T04:45:19;67.77;;;33.20;;
74904;SDS011;63465;50.862;6.220;2024-02-23T04:47:45;61.07;;;31.73;;
74904;SDS011;63465;50.862;6.220;2024-02-23T04:50:11;66.07;;;32.80;;
74904;SDS011;63465;50.862;6.220;2024-02-23T04:52:37;70.07;;;33.10;;
74904;SDS011;63465;50.862;6.220;2024-02-23T04:55:03;61.40;;;32.17;;
74904;SDS011;63465;50.862;6.220;2024-02-23T04:57:28;64.07;;;32.27;;
74904;SDS011;63465;50.862;6.220;2024-02-23T04:59:54;70.40;;;33.90;;
74904;SDS011;63465;50.862;6.220;2024-02-23T05:02:19;60.67;;;31.17;;
74904;SDS011;63465;50.862;6.220;2024-02-23T05:04:44;59.80;;;30.50;;
74904;SDS011;63465;50.862;6.220;2024-02-23T05:07:09;60.50;;;30.10;;
74904;SDS011;63465;50.862;6.220;2024-02-23T05:09:35;57.13;;;28.80;;
74904;SDS011;63465;50.862;6.220;2024-02-23T05:12:00;59.57;;;28.67;;
74904;SDS011;63465;50.862;6.220;2024-02-23T05:14:26;62.60;;;30.17;;
74904;SDS011;63465;50.862;6.220;2024-02-23T05:16:51;60.33;;;28.67;;
74904;SDS011;63465;50.862;6.220;2024-02-23T05:19:17;56.93;;;28.80;;
74904;SDS011;63465;50.862;6.220;2024-02-23T05:21:42;58.67;;;28.30;;
74904;SDS011;63465;50.862;6.220;2024-02-23T05:24:07;60.33;;;29.50;;
74904;SDS011;63465;50.862;6.220;2024-02-23T05:26:32;58.23;;;27.47;;
74904;SDS011;63465;50.862;6.220;2024-02-23T05:28:58;58.00;;;28.60;;
74904;SDS011;63465;50.862;6.220;2024-02-23T05:34:14;51.27;;;26.40;;
74904;SDS011;63465;50.862;6.220;2024-02-23T05:36:40;50.33;;;26.43;;
74904;SDS011;63465;50.862;6.220;2024-02-23T05:39:05;48.53;;;25.87;;
74904;SDS011;63465;50.862;6.220;2024-02-23T05:41:32;46.97;;;25.87;;
74904;SDS011;63465;50.862;6.220;2024-02-23T05:43:58;54.47;;;26.57;;
74904;SDS011;63465;50.862;6.220;2024-02-23T05:46:23;53.13;;;26.90;;
74904;SDS011;63465;50.862;6.220;2024-02-23T05:48:48;58.93;;;24.57;;
74904;SDS011;63465;50.862;6.220;2024-02-23T05:51:14;50.23;;;24.57;;
74904;SDS011;63465;50.862;6.220;2024-02-23T05:53:40;47.27;;;24.20;;
74904;SDS011;63465;50.862;6.220;2024-02-23T05:56:06;46.73;;;23.60;;
74904;SDS011;63465;50.862;6.220;2024-02-23T05:58:31;49.47;;;24.67;;
74904;SDS011;63465;50.862;6.220;2024-02-23T06:00:56;49.90;;;23.20;;
74904;SDS011;63465;50.862;6.220;2024-02-23T06:03:22;45.77;;;23.90;;
74904;SDS011;63465;50.862;6.220;2024-02-23T06:05:47;45.00;;;22.80;;
74904;SDS011;63465;50.862;6.220;2024-02-23T06:08:12;40.93;;;22.30;;
74904;SDS011;63465;50.862;6.220;2024-02-23T06:10:37;40.67;;;21.27;;
74904;SDS011;63465;50.862;6.220;2024-02-23T06:13:03;40.43;;;21.70;;
74904;SDS011;63465;50.862;6.220;2024-02-23T06:15:28;44.10;;;21.23;;
74904;SDS011;63465;50.862;6.220;2024-02-23T06:17:54;42.27;;;21.77;;
74904;SDS011;63465;50.862;6.220;2024-02-23T06:20:19;41.07;;;20.43;;
74904;SDS011;63465;50.862;6.220;2024-02-23T06:22:44;39.63;;;21.47;;
74904;SDS011;63465;50.862;6.220;2024-02-23T06:25:10;45.60;;;21.67;;
74904;SDS011;63465;50.862;6.220;2024-02-23T06:27:36;35.33;;;18.37;;
74904;SDS011;63465;50.862;6.220;2024-02-23T06:30:02;42.20;;;19.53;;
74904;SDS011;63465;50.862;6.220;2024-02-23T06:32:28;40.77;;;20.93;;
74904;SDS011;63465;50.862;6.220;2024-02-23T06:34:54;36.57;;;21.03;;
74904;SDS011;63465;50.862;6.220;2024-02-23T06:37:19;36.17;;;20.17;;
74904;SDS011;63465;50.862;6.220;2024-02-23T06:39:44;38.20;;;19.03;;
74904;SDS011;63465;50.862;6.220;2024-02-23T06:42:14;38.97;;;19.80;;
74904;SDS011;63465;50.862;6.220;2024-02-23T06:44:40;37.80;;;19.40;;
74904;SDS011;63465;50.862;6.220;2024-02-23T06:47:06;33.83;;;18.30;;
74904;SDS011;63465;50.862;6.220;2024-02-23T06:49:31;35.37;;;18.60;;
74904;SDS011;63465;50.862;6.220;2024-02-23T06:51:57;38.60;;;19.20;;
74904;SDS011;63465;50.862;6.220;2024-02-23T06:54:22;36.07;;;18.13;;
74904;SDS011;63465;50.862;6.220;2024-02-23T06:56:47;33.50;;;17.37;;
74904;SDS011;63465;50.862;6.220;2024-02-23T06:59:12;36.93;;;18.50;;
74904;SDS011;63465;50.862;6.220;2024-02-23T07:01:47;41.50;;;20.20;;
74904;SDS011;63465;50.862;6.220;2024-02-23T07:04:13;38.33;;;19.80;;
74904;SDS011;63465;50.862;6.220;2024-02-23T07:06:39;37.63;;;19.73;;
74904;SDS011;63465;50.862;6.220;2024-02-23T07:09:04;42.13;;;21.40;;
74904;SDS011;63465;50.862;6.220;2024-02-23T07:11:29;44.37;;;22.10;;
74904;SDS011;63465;50.862;6.220;2024-02-23T07:13:55;42.17;;;21.60;;
74904;SDS011;63465;50.862;6.220;2024-02-23T07:16:20;44.90;;;22.57;;
74904;SDS011;63465;50.862;6.220;2024-02-23T07:18:45;44.13;;;23.47;;
74904;SDS011;63465;50.862;6.220;2024-02-23T07:21:10;50.23;;;25.50;;
74904;SDS011;63465;50.862;6.220;2024-02-23T07:23:36;61.67;;;29.83;;
74904;SDS011;63465;50.862;6.220;2024-02-23T07:26:01;60.20;;;28.57;;
74904;SDS011;63465;50.862;6.220;2024-02-23T07:28:27;78.30;;;38.80;;
74904;SDS011;63465;50.862;6.220;2024-02-23T07:30:52;74.73;;;36.53;;
74904;SDS011;63465;50.862;6.220;2024-02-23T07:33:17;84.30;;;39.13;;
74904;SDS011;63465;50.862;6.220;2024-02-23T07:35:43;86.17;;;42.07;;
74904;SDS011;63465;50.862;6.220;2024-02-23T07:38:09;87.30;;;39.30;;
74904;SDS011;63465;50.862;6.220;2024-02-23T07:40:34;87.40;;;41.50;;
74904;SDS011;63465;50.862;6.220;2024-02-23T07:42:59;84.87;;;41.80;;
74904;SDS011;63465;50.862;6.220;2024-02-23T07:45:25;85.33;;;42.43;;
74904;SDS011;63465;50.862;6.220;2024-02-23T07:47:51;84.30;;;41.03;;
74904;SDS011;63465;50.862;6.220;2024-02-23T07:50:16;83.90;;;42.23;;
74904;SDS011;63465;50.862;6.220;2024-02-23T07:52:43;84.00;;;42.67;;
74904;SDS011;63465;50.862;6.220;2024-02-23T07:55:09;90.83;;;43.60;;
74904;SDS011;63465;50.862;6.220;2024-02-23T07:57:34;98.03;;;42.90;;
74904;SDS011;63465;50.862;6.220;2024-02-23T07:59:59;85.20;;;42.27;;
74904;SDS011;63465;50.862;6.220;2024-02-23T08:02:25;86.77;;;41.23;;
74904;SDS011;63465;50.862;6.220;2024-02-23T08:04:50;97.70;;;45.23;;
74904;SDS011;63465;50.862;6.220;2024-02-23T08:07:17;105.97;;;51.07;;
74904;SDS011;63465;50.862;6.220;2024-02-23T08:09:42;116.63;;;53.10;;
74904;SDS011;63465;50.862;6.220;2024-02-23T08:12:07;117.40;;;53.50;;
74904;SDS011;63465;50.862;6.220;2024-02-23T08:14:33;125.53;;;55.40;;
74904;SDS011;63465;50.862;6.220;2024-02-23T08:16:58;119.70;;;56.37;;
74904;SDS011;63465;50.862;6.220;2024-02-23T08:19:24;118.60;;;55.40;;
74904;SDS011;63465;50.862;6.220;2024-02-23T08:21:49;128.97;;;55.70;;
74904;SDS011;63465;50.862;6.220;2024-02-23T08:24:14;120.07;;;53.90;;
74904;SDS011;63465;50.862;6.220;2024-02-23T08:26:40;132.23;;;56.07;;
74904;SDS011;63465;50.862;6.220;2024-02-23T08:29:06;117.20;;;55.43;;
74904;SDS011;63465;50.862;6.220;2024-02-23T08:31:31;118.47;;;55.10;;
74904;SDS011;63465;50.862;6.220;2024-02-23T08:33:56;119.43;;;53.87;;
74904;SDS011;63465;50.862;6.220;2024-02-23T08:36:22;121.87;;;53.73;;
74904;SDS011;63465;50.862;6.220;2024-02-23T08:38:47;128.73;;;57.00;;
74904;SDS011;63465;50.862;6.220;2024-02-23T08:41:12;131.97;;;62.30;;
74904;SDS011;63465;50.862;6.220;2024-02-23T08:43:37;141.50;;;64.53;;
74904;SDS011;63465;50.862;6.220;2024-02-23T08:46:03;155.20;;;68.50;;
74904;SDS011;63465;50.862;6.220;2024-02-23T08:48:28;136.70;;;64.23;;
74904;SDS011;63465;50.862;6.220;2024-02-23T08:50:53;171.17;;;77.27;;
74904;SDS011;63465;50.862;6.220;2024-02-23T08:53:19;279.03;;;130.47;;
74904;SDS011;63465;50.862;6.220;2024-02-23T08:55:44;283.43;;;135.47;;
74904;SDS011;63465;50.862;6.220;2024-02-23T08:58:10;345.60;;;164.93;;
74904;SDS011;63465;50.862;6.220;2024-02-23T09:00:35;283.00;;;138.90;;
74904;SDS011;63465;50.862;6.220;2024-02-23T09:03:02;268.63;;;128.67;;
74904;SDS011;63465;50.862;6.220;2024-02-23T09:05:27;260.17;;;123.47;;
74904;SDS011;63465;50.862;6.220;2024-02-23T09:07:52;233.37;;;118.47;;
74904;SDS011;63465;50.862;6.220;2024-02-23T09:10:18;241.67;;;113.67;;
74904;SDS011;63465;50.862;6.220;2024-02-23T09:12:43;236.80;;;112.77;;
74904;SDS011;63465;50.862;6.220;2024-02-23T09:15:09;244.63;;;112.50;;
74904;SDS011;63465;50.862;6.220;2024-02-23T09:17:34;218.57;;;109.23;;
74904;SDS011;63465;50.862;6.220;2024-02-23T09:19:59;217.57;;;107.67;;
74904;SDS011;63465;50.862;6.220;2024-02-23T09:22:25;215.10;;;104.87;;
74904;SDS011;63465;50.862;6.220;2024-02-23T09:24:50;219.60;;;105.53;;
74904;SDS011;63465;50.862;6.220;2024-02-23T09:27:16;209.57;;;101.47;;
74904;SDS011;63465;50.862;6.220;2024-02-23T09:29:41;201.00;;;95.77;;
74904;SDS011;63465;50.862;6.220;2024-02-23T09:32:09;197.13;;;97.20;;
74904;SDS011;63465;50.862;6.220;2024-02-23T09:34:34;198.33;;;92.60;;
74904;SDS011;63465;50.862;6.220;2024-02-23T09:36:59;204.93;;;94.77;;
74904;SDS011;63465;50.862;6.220;2024-02-23T09:39:25;209.77;;;102.97;;
74904;SDS011;63465;50.862;6.220;2024-02-23T09:41:53;302.63;;;142.57;;
74904;SDS011;63465;50.862;6.220;2024-02-23T09:44:19;446.37;;;230.60;;
74904;SDS011;63465;50.862;6.220;2024-02-23T09:46:46;407.93;;;201.07;;
74904;SDS011;63465;50.862;6.220;2024-02-23T09:49:12;366.87;;;172.97;;
74904;SDS011;63465;50.862;6.220;2024-02-23T09:51:40;315.93;;;152.23;;
74904;SDS011;63465;50.862;6.220;2024-02-23T09:54:06;305.63;;;145.13;;
74904;SDS011;63465;50.862;6.220;2024-02-23T09:56:32;301.97;;;144.43;;
74904;SDS011;63465;50.862;6.220;2024-02-23T09:58:59;282.53;;;135.03;;
74904;SDS011;63465;50.862;6.220;2024-02-23T10:01:30;280.48;;;147.50;;
74904;SDS011;63465;50.862;6.220;2024-02-23T10:03:58;264.23;;;129.73;;
74904;SDS011;63465;50.862;6.220;2024-02-23T10:06:27;248.13;;;122.47;;
74904;SDS011;63465;50.862;6.220;2024-02-23T10:08:52;264.37;;;126.47;;
74904;SDS011;63465;50.862;6.220;2024-02-23T10:11:21;267.53;;;128.07;;
74904;SDS011;63465;50.862;6.220;2024-02-23T10:13:47;276.23;;;132.37;;
74904;SDS011;63465;50.862;6.220;2024-02-23T10:16:17;277.70;;;129.23;;
74904;SDS011;63465;50.862;6.220;2024-02-23T10:18:43;263.50;;;129.27;;
74904;SDS011;63465;50.862;6.220;2024-02-23T10:21:08;254.87;;;123.70;;
74904;SDS011;63465;50.862;6.220;2024-02-23T10:23:33;258.37;;;121.97;;
74904;SDS011;63465;50.862;6.220;2024-02-23T10:25:59;257.67;;;121.57;;
74904;SDS011;63465;50.862;6.220;2024-02-23T10:28:24;248.60;;;119.97;;
74904;SDS011;63465;50.862;6.220;2024-02-23T10:30:49;247.50;;;115.50;;
74904;SDS011;63465;50.862;6.220;2024-02-23T10:33:15;230.47;;;113.80;;
74904;SDS011;63465;50.862;6.220;2024-02-23T10:35:43;251.60;;;117.13;;
74904;SDS011;63465;50.862;6.220;2024-02-23T10:38:11;236.00;;;111.03;;
74904;SDS011;63465;50.862;6.220;2024-02-23T10:40:40;237.40;;;112.07;;
74904;SDS011;63465;50.862;6.220;2024-02-23T10:43:10;225.30;;;106.80;;
74904;SDS011;63465;50.862;6.220;2024-02-23T10:45:38;221.03;;;105.27;;
74904;SDS011;63465;50.862;6.220;2024-02-23T10:48:05;232.43;;;105.70;;
74904;SDS011;63465;50.862;6.220;2024-02-23T10:50:33;210.67;;;103.60;;
74904;SDS011;63465;50.862;6.220;2024-02-23T10:53:00;216.17;;;103.03;;
74904;SDS011;63465;50.862;6.220;2024-02-23T10:55:26;208.20;;;100.70;;
74904;SDS011;63465;50.862;6.220;2024-02-23T10:57:51;206.40;;;101.30;;
74904;SDS011;63465;50.862;6.220;2024-02-23T11:00:21;201.70;;;98.77;;
74904;SDS011;63465;50.862;6.220;2024-02-23T11:02:50;208.87;;;101.77;;
74904;SDS011;63465;50.862;6.220;2024-02-23T11:05:18;203.10;;;95.60;;
74904;SDS011;63465;50.862;6.220;2024-02-23T11:07:47;194.83;;;91.87;;
74904;SDS011;63465;50.862;6.220;2024-02-23T11:10:16;193.37;;;94.40;;
74904;SDS011;63465;50.862;6.220;2024-02-23T11:12:41;192.60;;;91.90;;
74904;SDS011;63465;50.862;6.220;2024-02-23T11:15:06;184.27;;;90.10;;
74904;SDS011;63465;50.862;6.220;2024-02-23T11:17:34;177.30;;;86.03;;
74904;SDS011;63465;50.862;6.220;2024-02-23T11:20:05;180.40;;;82.93;;
74904;SDS011;63465;50.862;6.220;2024-02-23T11:22:33;165.30;;;79.03;;
74904;SDS011;63465;50.862;6.220;2024-02-23T11:25:06;150.70;;;70.13;;
74904;SDS011;63465;50.862;6.220;2024-02-23T11:27:38;143.37;;;66.07;;
74904;SDS011;63465;50.862;6.220;2024-02-23T11:30:07;128.93;;;61.77;;
74904;SDS011;63465;50.862;6.220;2024-02-23T11:32:42;136.90;;;59.57;;
74904;SDS011;63465;50.862;6.220;2024-02-23T11:35:12;113.10;;;55.00;;
74904;SDS011;63465;50.862;6.220;2024-02-23T11:37:48;106.57;;;52.20;;
74904;SDS011;63465;50.862;6.220;2024-02-23T11:40:15;102.60;;;50.20;;
74904;SDS011;63465;50.862;6.220;2024-02-23T11:42:42;105.30;;;49.20;;
74904;SDS011;63465;50.862;6.220;2024-02-23T11:45:08;95.57;;;46.47;;
74904;SDS011;63465;50.862;6.220;2024-02-23T11:47:33;88.70;;;43.93;;
74904;SDS011;63465;50.862;6.220;2024-02-23T11:49:59;89.67;;;42.93;;
74904;SDS011;63465;50.862;6.220;2024-02-23T11:52:24;126.93;;;60.53;;
74904;SDS011;63465;50.862;6.220;2024-02-23T11:54:50;233.87;;;114.33;;
74904;SDS011;63465;50.862;6.220;2024-02-23T11:57:16;180.90;;;90.87;;
74904;SDS011;63465;50.862;6.220;2024-02-23T11:59:41;161.73;;;77.80;;
74904;SDS011;63465;50.862;6.220;2024-02-23T12:02:06;149.37;;;71.50;;
74904;SDS011;63465;50.862;6.220;2024-02-23T12:04:32;141.07;;;68.57;;
74904;SDS011;63465;50.862;6.220;2024-02-23T12:06:57;138.47;;;69.00;;
74904;SDS011;63465;50.862;6.220;2024-02-23T12:09:23;128.63;;;63.90;;
74904;SDS011;63465;50.862;6.220;2024-02-23T12:11:49;130.63;;;61.77;;
74904;SDS011;63465;50.862;6.220;2024-02-23T12:14:14;133.30;;;64.63;;
74904;SDS011;63465;50.862;6.220;2024-02-23T12:16:40;124.43;;;63.07;;
74904;SDS011;63465;50.862;6.220;2024-02-23T12:19:07;117.20;;;56.87;;
74904;SDS011;63465;50.862;6.220;2024-02-23T12:21:34;115.30;;;56.37;;
74904;SDS011;63465;50.862;6.220;2024-02-23T12:24:05;114.75;;;61.38;;
74904;SDS011;63465;50.862;6.220;2024-02-23T12:26:33;114.90;;;56.33;;
74904;SDS011;63465;50.862;6.220;2024-02-23T12:29:02;119.27;;;59.07;;
74904;SDS011;63465;50.862;6.220;2024-02-23T12:31:28;118.00;;;56.53;;
74904;SDS011;63465;50.862;6.220;2024-02-23T12:33:53;107.03;;;51.97;;
74904;SDS011;63465;50.862;6.220;2024-02-23T12:36:21;100.70;;;50.77;;
74904;SDS011;63465;50.862;6.220;2024-02-23T12:38:47;106.00;;;53.00;;
74904;SDS011;63465;50.862;6.220;2024-02-23T12:41:13;101.07;;;52.07;;
74904;SDS011;63465;50.862;6.220;2024-02-23T12:43:38;99.57;;;47.50;;
74904;SDS011;63465;50.862;6.220;2024-02-23T12:46:03;103.27;;;49.57;;
74904;SDS011;63465;50.862;6.220;2024-02-23T12:48:28;97.00;;;48.33;;
74904;SDS011;63465;50.862;6.220;2024-02-23T12:50:54;102.80;;;51.00;;
74904;SDS011;63465;50.862;6.220;2024-02-23T12:53:32;102.10;;;51.00;;
74904;SDS011;63465;50.862;6.220;2024-02-23T12:56:02;112.63;;;51.20;;
74904;SDS011;63465;50.862;6.220;2024-02-23T12:58:30;112.97;;;54.80;;
74904;SDS011;63465;50.862;6.220;2024-02-23T13:00:56;113.77;;;54.10;;
74904;SDS011;63465;50.862;6.220;2024-02-23T13:03:22;109.60;;;52.70;;
74904;SDS011;63465;50.862;6.220;2024-02-23T13:05:48;110.73;;;53.07;;
74904;SDS011;63465;50.862;6.220;2024-02-23T13:08:13;113.07;;;55.43;;
74904;SDS011;63465;50.862;6.220;2024-02-23T13:10:39;113.97;;;54.80;;
74904;SDS011;63465;50.862;6.220;2024-02-23T13:13:04;122.13;;;56.97;;
74904;SDS011;63465;50.862;6.220;2024-02-23T13:15:29;118.37;;;56.37;;
74904;SDS011;63465;50.862;6.220;2024-02-23T13:17:54;115.90;;;55.00;;
74904;SDS011;63465;50.862;6.220;2024-02-23T13:20:22;111.90;;;54.37;;
74904;SDS011;63465;50.862;6.220;2024-02-23T13:22:47;111.10;;;53.57;;
74904;SDS011;63465;50.862;6.220;2024-02-23T13:25:12;115.30;;;55.67;;
74904;SDS011;63465;50.862;6.220;2024-02-23T13:27:37;108.33;;;53.03;;
74904;SDS011;63465;50.862;6.220;2024-02-23T13:30:03;109.20;;;51.10;;
74904;SDS011;63465;50.862;6.220;2024-02-23T13:32:28;108.30;;;51.70;;
74904;SDS011;63465;50.862;6.220;2024-02-23T13:34:54;113.70;;;51.53;;
74904;SDS011;63465;50.862;6.220;2024-02-23T13:37:19;118.27;;;52.90;;
74904;SDS011;63465;50.862;6.220;2024-02-23T13:39:44;106.57;;;50.17;;
74904;SDS011;63465;50.862;6.220;2024-02-23T13:42:09;106.30;;;51.13;;
74904;SDS011;63465;50.862;6.220;2024-02-23T13:44:35;106.57;;;51.80;;
74904;SDS011;63465;50.862;6.220;2024-02-23T13:47:01;112.43;;;53.27;;
74904;SDS011;63465;50.862;6.220;2024-02-23T13:49:26;106.13;;;51.47;;
74904;SDS011;63465;50.862;6.220;2024-02-23T13:51:51;105.87;;;50.03;;
74904;SDS011;63465;50.862;6.220;2024-02-23T13:54:17;109.47;;;51.33;;
74904;SDS011;63465;50.862;6.220;2024-02-23T13:56:42;110.30;;;52.87;;
74904;SDS011;63465;50.862;6.220;2024-02-23T13:59:07;122.43;;;55.37;;
74904;SDS011;63465;50.862;6.220;2024-02-23T14:01:32;121.53;;;58.50;;
74904;SDS011;63465;50.862;6.220;2024-02-23T14:03:58;128.10;;;59.77;;
74904;SDS011;63465;50.862;6.220;2024-02-23T14:06:23;123.03;;;59.77;;
74904;SDS011;63465;50.862;6.220;2024-02-23T14:08:49;136.90;;;62.30;;
74904;SDS011;63465;50.862;6.220;2024-02-23T14:11:14;128.63;;;61.80;;
74904;SDS011;63465;50.862;6.220;2024-02-23T14:13:40;135.27;;;62.03;;